DAL999 KCLT-KRDU
Flight info
| Callsign | DAL999 |
|---|---|
| Flight time | 0h 36m |
| Altitude | 15000 |
| Route | LILLS3 LILLS ETBUY DMSTR2 |
| Aircraft | A359/H-SDE2E3GHIJ3J4J5LM1ORWXY/LB1D1 |
Departure
| Time | 2026-05-07 01:59 |
|---|---|
| Airport | Charlotte Douglas International Airport (KCLT) |
Arrival
| Time | 2026-05-07 02:35 |
|---|---|
| Airport | Raleigh-Durham International Airport (KRDU) |
| Time | Latitude | Longitude | Altitude | Speed | Heading |
|---|---|---|---|---|---|
| 2026-05-07 01:50 | 35.22322 | -80.94753 | 726 ft | 0 kts | 177° |
| 2026-05-07 01:53 | 35.22308 | -80.94752 | 725 ft | 1 kts | 177° |
| 2026-05-07 01:53 | 35.22326 | -80.94753 | 725 ft | 2 kts | 177° |
| 2026-05-07 01:53 | 35.22348 | -80.94749 | 723 ft | 4 kts | 225° |
| 2026-05-07 01:53 | 35.22357 | -80.94723 | 724 ft | 4 kts | 268° |
| 2026-05-07 01:54 | 35.22354 | -80.94711 | 723 ft | 4 kts | 266° |
| 2026-05-07 01:54 | 35.22352 | -80.94734 | 723 ft | 0 kts | 266° |
| 2026-05-07 01:55 | 35.22351 | -80.94769 | 721 ft | 10 kts | 268° |
| 2026-05-07 01:55 | 35.22346 | -80.94896 | 720 ft | 17 kts | 268° |
| 2026-05-07 01:55 | 35.22405 | -80.94991 | 722 ft | 16 kts | 340° |
| 2026-05-07 01:56 | 35.22517 | -80.95008 | 721 ft | 18 kts | 357° |
| 2026-05-07 01:56 | 35.22652 | -80.95018 | 721 ft | 19 kts | 354° |
| 2026-05-07 01:56 | 35.22703 | -80.95091 | 721 ft | 11 kts | 296° |
| 2026-05-07 01:56 | 35.22733 | -80.95173 | 718 ft | 0 kts | 268° |
| 2026-05-07 01:57 | 35.22733 | -80.95178 | 720 ft | 4 kts | 268° |
| 2026-05-07 01:57 | 35.22730 | -80.95255 | 718 ft | 12 kts | 266° |
| 2026-05-07 01:57 | 35.22677 | -80.95310 | 720 ft | 10 kts | 178° |
| 2026-05-07 01:58 | 35.22644 | -80.95308 | 719 ft | 0 kts | 175° |
| 2026-05-07 01:58 | 35.22643 | -80.95308 | 718 ft | 0 kts | 175° |
| 2026-05-07 01:58 | 35.22639 | -80.95308 | 717 ft | 1 kts | 175° |
| 2026-05-07 01:58 | 35.22613 | -80.95305 | 724 ft | 10 kts | 175° |
| 2026-05-07 01:59 | 35.22299 | -80.95278 | 720 ft | 84 kts | 176° |
| 2026-05-07 01:59 | 35.21492 | -80.95209 | 726 ft | 149 kts | 176° |
| 2026-05-07 01:59 | 35.20353 | -80.95101 | 1229 ft | 166 kts | 178° |
| 2026-05-07 01:59 | 35.19214 | -80.94952 | 2111 ft | 167 kts | 181° |
| 2026-05-07 02:00 | 35.17963 | -80.94768 | 2538 ft | 194 kts | 175° |
| 2026-05-07 02:00 | 35.16649 | -80.94067 | 3192 ft | 219 kts | 155° |
| 2026-05-07 02:00 | 35.15487 | -80.92710 | 3716 ft | 245 kts | 135° |
| 2026-05-07 02:00 | 35.14513 | -80.90892 | 4220 ft | 267 kts | 127° |
| 2026-05-07 02:01 | 35.13748 | -80.88752 | 4907 ft | 282 kts | 113° |
| 2026-05-07 02:01 | 35.13176 | -80.86483 | 5727 ft | 288 kts | 109° |
| 2026-05-07 02:01 | 35.12681 | -80.84053 | 6490 ft | 298 kts | 107° |
| 2026-05-07 02:01 | 35.12198 | -80.81561 | 7292 ft | 305 kts | 107° |
| 2026-05-07 02:02 | 35.11708 | -80.79026 | 8186 ft | 309 kts | 107° |
| 2026-05-07 02:02 | 35.11205 | -80.76439 | 9118 ft | 315 kts | 108° |
| 2026-05-07 02:02 | 35.10857 | -80.74655 | 9738 ft | 318 kts | 108° |
| 2026-05-07 02:02 | 35.10390 | -80.72269 | 10378 ft | 330 kts | 108° |
| 2026-05-07 02:03 | 35.09832 | -80.69446 | 10795 ft | 352 kts | 107° |
| 2026-05-07 02:03 | 35.09241 | -80.66446 | 11167 ft | 374 kts | 107° |
| 2026-05-07 02:03 | 35.08621 | -80.63288 | 11649 ft | 389 kts | 107° |
| 2026-05-07 02:03 | 35.07985 | -80.60046 | 12402 ft | 395 kts | 107° |
| 2026-05-07 02:04 | 35.07339 | -80.56757 | 13137 ft | 402 kts | 106° |
| 2026-05-07 02:04 | 35.06682 | -80.53418 | 13860 ft | 407 kts | 106° |
| 2026-05-07 02:04 | 35.06020 | -80.50067 | 14433 ft | 415 kts | 106° |
| 2026-05-07 02:04 | 35.05339 | -80.46627 | 14806 ft | 420 kts | 106° |
| 2026-05-07 02:05 | 35.04644 | -80.43121 | 14945 ft | 433 kts | 106° |
| 2026-05-07 02:05 | 35.03913 | -80.39455 | 14944 ft | 455 kts | 105° |
| 2026-05-07 02:05 | 35.03159 | -80.35666 | 14939 ft | 462 kts | 105° |
| 2026-05-07 02:05 | 35.02400 | -80.31849 | 14949 ft | 462 kts | 105° |
| 2026-05-07 02:06 | 35.01640 | -80.28035 | 14960 ft | 462 kts | 105° |
| 2026-05-07 02:06 | 35.00878 | -80.24223 | 14965 ft | 462 kts | 105° |
| 2026-05-07 02:06 | 35.00127 | -80.20470 | 14970 ft | 461 kts | 106° |
| 2026-05-07 02:06 | 34.99360 | -80.16648 | 14969 ft | 461 kts | 106° |
| 2026-05-07 02:07 | 34.98576 | -80.12856 | 14967 ft | 461 kts | 108° |
| 2026-05-07 02:07 | 34.96686 | -80.05391 | 14968 ft | 461 kts | 109° |
| 2026-05-07 02:07 | 34.95734 | -80.01669 | 14970 ft | 461 kts | 109° |
| 2026-05-07 02:08 | 34.94793 | -79.97931 | 14965 ft | 461 kts | 108° |
| 2026-05-07 02:08 | 34.94237 | -79.94071 | 14955 ft | 464 kts | 92° |
| 2026-05-07 02:08 | 34.94593 | -79.90174 | 14940 ft | 463 kts | 74° |
| 2026-05-07 02:08 | 34.95324 | -79.87742 | 14944 ft | 460 kts | 63° |
| 2026-05-07 02:09 | 34.96803 | -79.84286 | 14944 ft | 459 kts | 59° |
| 2026-05-07 02:09 | 34.98810 | -79.79728 | 14938 ft | 460 kts | 60° |
| 2026-05-07 02:09 | 35.00284 | -79.76257 | 14939 ft | 460 kts | 61° |
| 2026-05-07 02:09 | 35.01264 | -79.73905 | 14937 ft | 460 kts | 61° |
| 2026-05-07 02:10 | 35.02680 | -79.70467 | 14935 ft | 460 kts | 62° |
| 2026-05-07 02:10 | 35.04111 | -79.66963 | 14920 ft | 460 kts | 62° |
| 2026-05-07 02:10 | 35.05535 | -79.63457 | 14922 ft | 460 kts | 62° |
| 2026-05-07 02:10 | 35.06952 | -79.59957 | 14928 ft | 460 kts | 62° |
| 2026-05-07 02:11 | 35.08371 | -79.56442 | 14923 ft | 461 kts | 62° |
| 2026-05-07 02:11 | 35.09930 | -79.53027 | 14916 ft | 458 kts | 52° |
| 2026-05-07 02:11 | 35.12110 | -79.50242 | 14924 ft | 450 kts | 33° |
| 2026-05-07 02:11 | 35.14776 | -79.48426 | 14923 ft | 440 kts | 15° |
| 2026-05-07 02:12 | 35.17721 | -79.47656 | 14962 ft | 429 kts | 359° |
| 2026-05-07 02:12 | 35.20702 | -79.47414 | 14966 ft | 428 kts | 358° |
| 2026-05-07 02:12 | 35.23666 | -79.47170 | 14958 ft | 429 kts | 359° |
| 2026-05-07 02:12 | 35.26657 | -79.46863 | 14962 ft | 429 kts | 359° |
| 2026-05-07 02:13 | 35.29633 | -79.46542 | 14989 ft | 430 kts | 359° |
| 2026-05-07 02:13 | 35.32428 | -79.46198 | 14959 ft | 432 kts | 1° |
| 2026-05-07 02:13 | 35.35321 | -79.45266 | 14960 ft | 444 kts | 17° |
| 2026-05-07 02:13 | 35.38009 | -79.43326 | 14966 ft | 453 kts | 32° |
| 2026-05-07 02:14 | 35.40456 | -79.40869 | 14909 ft | 451 kts | 36° |
| 2026-05-07 02:14 | 35.42801 | -79.38432 | 14690 ft | 439 kts | 35° |
| 2026-05-07 02:14 | 35.45133 | -79.36034 | 14453 ft | 436 kts | 35° |
| 2026-05-07 02:14 | 35.47467 | -79.33656 | 14161 ft | 435 kts | 35° |
| 2026-05-07 02:15 | 35.49796 | -79.31293 | 13601 ft | 429 kts | 35° |
| 2026-05-07 02:15 | 35.52095 | -79.28961 | 12896 ft | 425 kts | 35° |
| 2026-05-07 02:15 | 35.54305 | -79.26717 | 12637 ft | 406 kts | 35° |
| 2026-05-07 02:15 | 35.56373 | -79.24612 | 12490 ft | 368 kts | 34° |
| 2026-05-07 02:16 | 35.58260 | -79.22692 | 12341 ft | 337 kts | 33° |
| 2026-05-07 02:16 | 35.60047 | -79.20885 | 12238 ft | 331 kts | 33° |
| 2026-05-07 02:16 | 35.61834 | -79.19091 | 11918 ft | 332 kts | 33° |
| 2026-05-07 02:16 | 35.63532 | -79.17149 | 11500 ft | 334 kts | 44° |
| 2026-05-07 02:17 | 35.64973 | -79.14898 | 11100 ft | 334 kts | 49° |
| 2026-05-07 02:17 | 35.66337 | -79.12606 | 10698 ft | 331 kts | 49° |
| 2026-05-07 02:17 | 35.67688 | -79.10328 | 10304 ft | 329 kts | 49° |
| 2026-05-07 02:17 | 35.69035 | -79.08063 | 10128 ft | 327 kts | 49° |
| 2026-05-07 02:18 | 35.70375 | -79.05814 | 10011 ft | 326 kts | 49° |
| 2026-05-07 02:18 | 35.71717 | -79.03563 | 9873 ft | 326 kts | 49° |
| 2026-05-07 02:18 | 35.73058 | -79.01314 | 9511 ft | 325 kts | 49° |
| 2026-05-07 02:18 | 35.74389 | -78.99082 | 9179 ft | 323 kts | 49° |
| 2026-05-07 02:19 | 35.75697 | -78.96882 | 8944 ft | 313 kts | 49° |
| 2026-05-07 02:19 | 35.76956 | -78.94757 | 8769 ft | 302 kts | 49° |
| 2026-05-07 02:19 | 35.78172 | -78.92735 | 8588 ft | 292 kts | 46° |
| 2026-05-07 02:19 | 35.79618 | -78.91102 | 8389 ft | 274 kts | 22° |
| 2026-05-07 02:20 | 35.81357 | -78.90288 | 8092 ft | 261 kts | 6° |
| 2026-05-07 02:20 | 35.83061 | -78.89752 | 7697 ft | 251 kts | 5° |
| 2026-05-07 02:20 | 35.84756 | -78.89236 | 7457 ft | 251 kts | 5° |
| 2026-05-07 02:20 | 35.86451 | -78.88717 | 7293 ft | 250 kts | 5° |
| 2026-05-07 02:21 | 35.88145 | -78.88195 | 7143 ft | 250 kts | 5° |
| 2026-05-07 02:21 | 35.89819 | -78.87676 | 6960 ft | 248 kts | 5° |
| 2026-05-07 02:21 | 35.91489 | -78.87157 | 6642 ft | 247 kts | 5° |
| 2026-05-07 02:21 | 35.93150 | -78.86631 | 6348 ft | 246 kts | 6° |
| 2026-05-07 02:22 | 35.94740 | -78.85778 | 5956 ft | 257 kts | 28° |
| 2026-05-07 02:22 | 35.96097 | -78.84312 | 5601 ft | 261 kts | 39° |
| 2026-05-07 02:22 | 35.97368 | -78.82720 | 5287 ft | 259 kts | 39° |
| 2026-05-07 02:22 | 35.98640 | -78.81141 | 5052 ft | 258 kts | 39° |
| 2026-05-07 02:23 | 35.99903 | -78.79589 | 4995 ft | 261 kts | 39° |
| 2026-05-07 02:23 | 36.01188 | -78.78014 | 4979 ft | 256 kts | 39° |
| 2026-05-07 02:23 | 36.02381 | -78.76537 | 4940 ft | 234 kts | 39° |
| 2026-05-07 02:23 | 36.03515 | -78.75140 | 4582 ft | 229 kts | 38° |
| 2026-05-07 02:24 | 36.04656 | -78.73751 | 4233 ft | 229 kts | 38° |
| 2026-05-07 02:24 | 36.05780 | -78.72383 | 3962 ft | 225 kts | 39° |
| 2026-05-07 02:24 | 36.06898 | -78.71025 | 3581 ft | 226 kts | 39° |
| 2026-05-07 02:24 | 36.08023 | -78.69658 | 3257 ft | 226 kts | 40° |
| 2026-05-07 02:25 | 36.09129 | -78.68307 | 3034 ft | 222 kts | 40° |
| 2026-05-07 02:25 | 36.10231 | -78.66964 | 2980 ft | 221 kts | 41° |
| 2026-05-07 02:25 | 36.11322 | -78.65633 | 2980 ft | 220 kts | 41° |
| 2026-05-07 02:25 | 36.12393 | -78.64322 | 2979 ft | 219 kts | 40° |
| 2026-05-07 02:26 | 36.13480 | -78.62997 | 2983 ft | 220 kts | 41° |
| 2026-05-07 02:26 | 36.14571 | -78.61664 | 2986 ft | 220 kts | 41° |
| 2026-05-07 02:26 | 36.15463 | -78.60135 | 2980 ft | 222 kts | 68° |
| 2026-05-07 02:26 | 36.15635 | -78.58291 | 2981 ft | 214 kts | 103° |
| 2026-05-07 02:27 | 36.15111 | -78.56624 | 2986 ft | 204 kts | 126° |
| 2026-05-07 02:27 | 36.14374 | -78.55149 | 2987 ft | 200 kts | 130° |
| 2026-05-07 02:27 | 36.13429 | -78.53961 | 2986 ft | 190 kts | 157° |
| 2026-05-07 02:27 | 36.12202 | -78.53591 | 3002 ft | 178 kts | 184° |
| 2026-05-07 02:28 | 36.10982 | -78.53651 | 2995 ft | 174 kts | 189° |
| 2026-05-07 02:28 | 36.09780 | -78.53790 | 2989 ft | 172 kts | 192° |
| 2026-05-07 02:28 | 36.08687 | -78.54318 | 2995 ft | 166 kts | 211° |
| 2026-05-07 02:28 | 36.07758 | -78.55110 | 2996 ft | 163 kts | 220° |
| 2026-05-07 02:29 | 36.06890 | -78.56047 | 2992 ft | 164 kts | 224° |
| 2026-05-07 02:29 | 36.06086 | -78.57017 | 2993 ft | 164 kts | 224° |
| 2026-05-07 02:29 | 36.05278 | -78.58006 | 2990 ft | 162 kts | 224° |
| 2026-05-07 02:29 | 36.04472 | -78.59000 | 2990 ft | 165 kts | 225° |
| 2026-05-07 02:30 | 36.03657 | -78.60015 | 2990 ft | 167 kts | 225° |
| 2026-05-07 02:30 | 36.02844 | -78.61035 | 2991 ft | 166 kts | 225° |
| 2026-05-07 02:30 | 36.02030 | -78.62058 | 2985 ft | 166 kts | 225° |
| 2026-05-07 02:30 | 36.01228 | -78.63063 | 2984 ft | 164 kts | 225° |
| 2026-05-07 02:31 | 36.00423 | -78.64067 | 2985 ft | 163 kts | 226° |
| 2026-05-07 02:31 | 35.99629 | -78.65057 | 2985 ft | 162 kts | 225° |
| 2026-05-07 02:31 | 35.98836 | -78.66045 | 2967 ft | 163 kts | 225° |
| 2026-05-07 02:31 | 35.98046 | -78.67040 | 2774 ft | 161 kts | 226° |
| 2026-05-07 02:32 | 35.97257 | -78.68031 | 2567 ft | 162 kts | 225° |
| 2026-05-07 02:32 | 35.96459 | -78.69016 | 2400 ft | 162 kts | 224° |
| 2026-05-07 02:32 | 35.95668 | -78.69995 | 2137 ft | 164 kts | 223° |
| 2026-05-07 02:32 | 35.94863 | -78.70994 | 1922 ft | 164 kts | 223° |
| 2026-05-07 02:33 | 35.94061 | -78.71992 | 1691 ft | 162 kts | 222° |
| 2026-05-07 02:33 | 35.93281 | -78.72962 | 1469 ft | 150 kts | 223° |
| 2026-05-07 02:33 | 35.92589 | -78.73825 | 1282 ft | 133 kts | 223° |
| 2026-05-07 02:33 | 35.91956 | -78.74610 | 1121 ft | 129 kts | 223° |
| 2026-05-07 02:34 | 35.91316 | -78.75406 | 965 ft | 137 kts | 225° |
| 2026-05-07 02:34 | 35.90598 | -78.76279 | 798 ft | 142 kts | 224° |
| 2026-05-07 02:34 | 35.89927 | -78.77142 | 587 ft | 138 kts | 224° |
| 2026-05-07 02:34 | 35.89244 | -78.77979 | 432 ft | 138 kts | 224° |
| 2026-05-07 02:35 | 35.88625 | -78.78741 | 431 ft | 98 kts | 224° |
| 2026-05-07 02:35 | 35.88307 | -78.79131 | 422 ft | 56 kts | 225° |
| 2026-05-07 02:35 | 35.88045 | -78.79453 | 429 ft | 51 kts | 219° |
| 2026-05-07 02:35 | 35.87957 | -78.79485 | 426 ft | 4 kts | 149° |
| 2026-05-07 02:36 | 35.87889 | -78.79466 | 433 ft | 13 kts | 212° |
| 2026-05-07 02:36 | 35.87818 | -78.79547 | 423 ft | 16 kts | 224° |
| 2026-05-07 02:36 | 35.87731 | -78.79647 | 422 ft | 18 kts | 218° |
| 2026-05-07 02:36 | 35.87658 | -78.79641 | 425 ft | 9 kts | 88° |
| 2026-05-07 02:37 | 35.87704 | -78.79584 | 420 ft | 13 kts | 43° |
| 2026-05-07 02:37 | 35.87793 | -78.79484 | 424 ft | 17 kts | 41° |
| 2026-05-07 02:37 | 35.87800 | -78.79406 | 419 ft | 7 kts | 125° |
| 2026-05-07 02:37 | 35.87784 | -78.79386 | 422 ft | 0 kts | 135° |